Time;durP1;ratioP1;P1;durP2;ratioP2;P2;SDS_P1;SDS_P2;PMS_P1;PMS_P2;Temp;Humidity;BMP_temperature;BMP_pressure;BME280_temperature;BME280_humidity;BME280_pressure;Samples;Min_cycle;Max_cycle;Signal;HPM_P1;HPM_P2
2023/07/12 00:00:55;;;;;;;15.47;10.90;;;22.00;99.90;;;;;;5050874;28;20486;-63
2023/07/12 00:03:22;;;;;;;12.70;11.40;;;23.80;99.90;;;;;;5061528;28;21180;-63
2023/07/12 00:05:49;;;;;;;17.57;10.93;;;21.90;99.90;;;;;;5060777;28;20470;-63
2023/07/12 00:08:21;;;;;;;13.73;11.70;;;21.90;99.90;;;;;;5060163;28;20467;-64
2023/07/12 00:10:52;;;;;;;14.33;11.47;;;21.90;99.90;;;;;;5053178;27;20478;-63
2023/07/12 00:13:19;;;;;;;14.73;12.40;;;21.90;99.90;;;;;;5061035;28;20490;-63
2023/07/12 00:15:48;;;;;;;16.53;11.57;;;22.10;99.90;;;;;;5053149;28;20474;-64
2023/07/12 00:18:17;;;;;;;18.63;11.67;;;22.20;99.90;;;;;;5038863;28;20476;-63
2023/07/12 00:20:45;;;;;;;12.30;9.93;;;22.20;99.90;;;;;;5051075;28;20474;-63
2023/07/12 00:23:14;;;;;;;21.00;12.17;;;22.20;99.90;;;;;;5057741;27;20533;-62
2023/07/12 00:25:42;;;;;;;18.90;10.10;;;22.30;99.90;;;;;;5058406;27;20533;-63
2023/07/12 00:28:21;;;;;;;13.37;11.93;;;22.30;99.90;;;;;;5064111;28;20486;-64
2023/07/12 00:30:48;;;;;;;13.40;11.90;;;22.30;99.90;;;;;;5027763;28;20904;-63
2023/07/12 00:33:15;;;;;;;21.13;13.23;;;22.40;99.90;;;;;;5055253;27;20549;-63
2023/07/12 00:35:44;;;;;;;13.63;11.77;;;22.40;99.90;;;;;;5076008;28;21002;-63
2023/07/12 00:38:18;;;;;;;18.63;13.00;;;22.30;99.90;;;;;;5063091;27;20582;-62
2023/07/12 00:41:04;;;;;;;16.77;11.87;;;22.20;99.90;;;;;;5050869;28;20881;-63
2023/07/12 00:43:38;;;;;;;15.07;12.17;;;22.10;99.90;;;;;;5004024;28;20713;-64
2023/07/12 00:46:12;;;;;;;17.47;12.20;;;22.00;99.90;;;;;;5055885;28;20486;-63
2023/07/12 00:48:39;;;;;;;15.03;11.87;;;21.90;99.90;;;;;;5067026;28;20470;-63
2023/07/12 00:51:31;;;;;;;14.70;12.33;;;21.90;99.90;;;;;;5068532;27;20474;-63
2023/07/12 00:53:59;;;;;;;14.87;12.27;;;21.90;99.90;;;;;;5059844;27;20483;-63
2023/07/12 00:56:27;;;;;;;17.80;12.10;;;22.00;99.90;;;;;;5057408;27;20476;-63
2023/07/12 00:58:58;;;;;;;23.07;12.30;;;22.20;99.90;;;;;;5064976;27;21039;-63
2023/07/12 01:01:26;;;;;;;20.80;11.80;;;22.30;99.90;;;;;;5049876;27;20505;-63
2023/07/12 01:03:54;;;;;;;16.43;11.70;;;22.40;99.90;;;;;;5037582;28;20482;-63
2023/07/12 01:06:22;;;;;;;15.97;11.40;;;22.50;99.90;;;;;;5059243;28;20478;-63
2023/07/12 01:08:49;;;;;;;18.90;11.60;;;22.40;99.90;;;;;;5049311;28;20474;-63
2023/07/12 01:11:20;;;;;;;18.73;12.53;;;22.40;99.90;;;;;;5056839;28;20637;-63
2023/07/12 01:13:51;;;;;;;13.90;11.60;;;22.30;99.90;;;;;;5021880;28;20469;-63
2023/07/12 01:16:21;;;;;;;19.90;13.03;;;22.30;99.90;;;;;;5043062;28;20476;-64
2023/07/12 01:18:48;;;;;;;37.17;12.03;;;22.30;99.90;;;;;;5020326;28;20471;-63
2023/07/12 01:21:18;;;;;;;19.50;12.43;;;22.20;99.90;;;;;;5030317;28;20471;-62
2023/07/12 01:23:47;;;;;;;20.30;13.43;;;22.20;99.90;;;;;;5028220;28;20493;-63
2023/07/12 01:26:21;;;;;;;19.93;12.37;;;22.20;99.90;;;;;;5036268;28;20983;-63
2023/07/12 01:28:51;;;;;;;20.00;11.27;;;20.80;99.90;;;;;;5051695;28;20479;-63
2023/07/12 01:31:18;;;;;;;17.10;12.20;;;22.20;99.90;;;;;;5038409;28;20741;-63
2023/07/12 01:33:45;;;;;;;20.17;11.70;;;22.20;99.90;;;;;;5033373;28;20483;-63
2023/07/12 01:36:12;;;;;;;17.03;11.80;;;22.30;99.90;;;;;;5034305;28;20484;-63
2023/07/12 01:38:41;;;;;;;16.40;11.27;;;22.30;99.90;;;;;;5037763;28;20806;-63
2023/07/12 01:41:08;;;;;;;14.63;12.07;;;;;;;;;;5036326;28;20491;-63
2023/07/12 01:43:36;;;;;;;22.37;10.50;;;22.40;99.90;;;;;;5036251;28;20488;-63
2023/07/12 01:46:03;;;;;;;17.43;11.33;;;22.40;99.90;;;;;;5038904;28;20491;-63
2023/07/12 01:48:30;;;;;;;19.13;11.77;;;22.40;99.90;;;;;;5027326;28;20838;-63
2023/07/12 01:50:57;;;;;;;15.73;10.83;;;22.50;99.90;;;;;;5027526;28;20489;-63
2023/07/12 01:53:24;;;;;;;20.17;11.63;;;22.50;99.90;;;;;;5023049;28;20564;-63
2023/07/12 01:55:52;;;;;;;13.83;10.43;;;22.50;99.90;;;;;;5019945;28;20821;-63
2023/07/12 01:58:19;;;;;;;17.23;11.97;;;22.30;99.90;;;;;;5016895;28;20484;-64
2023/07/12 02:00:46;;;;;;;24.07;12.37;;;22.20;99.90;;;;;;5019878;28;20496;-64
2023/07/12 02:03:12;;;;;;;17.60;12.27;;;21.90;99.90;;;;;;5014375;28;20473;-63
2023/07/12 02:05:39;;;;;;;27.33;13.60;;;22.00;99.90;;;;;;5022980;28;20488;-63
2023/07/12 02:08:06;;;;;;;25.53;13.90;;;21.90;99.90;;;;;;5031937;28;20480;-63
2023/07/12 02:10:33;;;;;;;19.00;11.70;;;21.90;99.90;;;;;;5027897;28;21375;-63
2023/07/12 02:13:02;;;;;;;22.10;13.60;;;21.90;99.90;;;;;;5026754;28;20494;-63
2023/07/12 02:15:29;;;;;;;17.43;11.30;;;21.90;99.90;;;;;;5023110;28;20475;-63
2023/07/12 02:17:56;;;;;;;31.17;14.37;;;21.80;99.90;;;;;;5034440;28;20476;-62
2023/07/12 02:20:23;;;;;;;18.70;11.67;;;21.90;99.90;;;;;;5031873;28;20475;-63
2023/07/12 02:22:51;;;;;;;20.37;12.67;;;21.80;99.90;;;;;;5045935;28;22011;-63
2023/07/12 02:25:20;;;;;;;29.83;14.50;;;21.70;99.90;;;;;;5035519;28;20490;-63
2023/07/12 02:27:47;;;;;;;21.53;12.37;;;21.80;99.90;;;;;;5023590;28;20511;-63
2023/07/12 02:30:17;;;;;;;24.43;13.80;;;21.70;99.90;;;;;;5011768;28;20479;-63
2023/07/12 02:32:44;;;;;;;27.40;12.73;;;21.70;99.90;;;;;;5032085;28;20473;-62
2023/07/12 02:35:11;;;;;;;19.87;13.17;;;21.80;99.90;;;;;;5029038;28;20887;-63
2023/07/12 02:37:38;;;;;;;19.00;12.63;;;21.80;99.90;;;;;;5038815;28;21137;-63
2023/07/12 02:40:07;;;;;;;15.50;12.07;;;21.80;99.90;;;;;;5043549;28;20478;-63
2023/07/12 02:42:35;;;;;;;28.60;12.17;;;21.80;99.90;;;;;;5049996;28;20917;-63
2023/07/12 02:45:02;;;;;;;20.37;13.17;;;21.80;99.90;;;;;;5057251;28;21054;-63
2023/07/12 02:47:30;;;;;;;24.50;12.30;;;21.80;99.90;;;;;;5049827;28;20486;-63
2023/07/12 02:49:57;;;;;;;24.27;13.17;;;21.90;99.90;;;;;;5050488;28;20478;-63
2023/07/12 02:52:23;;;;;;;21.07;11.70;;;21.90;99.90;;;;;;5049350;28;20478;-63
2023/07/12 02:54:50;;;;;;;23.03;12.50;;;21.90;99.90;;;;;;5060721;28;20952;-63
2023/07/12 02:57:17;;;;;;;29.27;13.33;;;22.00;99.90;;;;;;5058384;28;20481;-63
2023/07/12 02:59:45;;;;;;;24.60;14.80;;;21.90;99.90;;;;;;5053681;28;20921;-63
2023/07/12 03:02:13;;;;;;;26.43;14.60;;;22.00;99.90;;;;;;5062816;28;20905;-63
2023/07/12 03:04:42;;;;;;;18.93;12.10;;;21.90;99.90;;;;;;5045784;28;20485;-63
2023/07/12 03:07:08;;;;;;;26.73;14.97;;;21.90;99.90;;;;;;5059474;28;20494;-62
2023/07/12 03:09:35;;;;;;;20.73;12.27;;;21.80;99.90;;;;;;5038135;28;21479;-63
2023/07/12 03:12:02;;;;;;;28.03;14.90;;;21.90;99.90;;;;;;5061672;28;20483;-62
2023/07/12 03:14:30;;;;;;;27.47;13.67;;;21.80;99.90;;;;;;5039819;28;20594;-63
2023/07/12 03:16:57;;;;;;;30.00;12.53;;;21.80;99.90;;;;;;5042606;28;21523;-62
2023/07/12 03:19:24;;;;;;;18.70;12.03;;;21.80;99.90;;;;;;5057720;28;20497;-63
2023/07/12 03:21:52;;;;;;;28.30;12.17;;;21.80;99.90;;;;;;5058882;28;20497;-62
2023/07/12 03:24:19;;;;;;;23.83;12.10;;;21.80;99.90;;;;;;5058149;28;20489;-61
2023/07/12 03:26:46;;;;;;;25.80;12.57;;;21.80;99.90;;;;;;5019168;28;20926;-63
2023/07/12 03:29:13;;;;;;;21.17;12.80;;;21.80;99.90;;;;;;5037561;28;20484;-63
2023/07/12 03:31:40;;;;;;;19.90;11.87;;;21.70;99.90;;;;;;5034519;28;21237;-62
2023/07/12 03:34:07;;;;;;;32.80;15.50;;;21.70;99.90;;;;;;5031980;28;20485;-63
2023/07/12 03:36:34;;;;;;;25.80;13.87;;;21.70;99.90;;;;;;5034477;28;20479;-62
2023/07/12 03:39:02;;;;;;;27.20;13.20;;;21.70;99.90;;;;;;5025875;28;20572;-63
2023/07/12 03:41:28;;;;;;;18.03;11.97;;;21.70;99.90;;;;;;5030689;28;20491;-62
2023/07/12 03:43:55;;;;;;;26.23;13.47;;;21.60;99.90;;;;;;5051274;28;20489;-62
2023/07/12 03:46:22;;;;;;;24.77;12.20;;;21.60;99.90;;;;;;5020092;28;20488;-63
2023/07/12 03:48:49;;;;;;;20.80;11.63;;;21.60;99.90;;;;;;5022989;28;20492;-63
2023/07/12 03:51:18;;;;;;;25.40;13.40;;;21.60;99.90;;;;;;5024308;28;20982;-63
2023/07/12 03:53:45;;;;;;;23.00;11.87;;;21.60;99.90;;;;;;5018988;28;20489;-63
2023/07/12 03:56:13;;;;;;;32.40;15.60;;;21.70;99.90;;;;;;5021564;28;20539;-63
2023/07/12 03:58:41;;;;;;;26.57;12.60;;;;;;;;;;5051480;28;20475;-63
2023/07/12 04:01:10;;;;;;;37.57;17.00;;;21.70;99.90;;;;;;5064410;28;20476;-62
2023/07/12 04:03:38;;;;;;;24.70;12.40;;;19.90;99.90;;;;;;5038687;28;21013;-63
2023/07/12 04:06:06;;;;;;;33.40;15.37;;;21.70;99.90;;;;;;5027612;28;20483;-62
2023/07/12 04:08:33;;;;;;;27.07;14.67;;;21.70;99.90;;;;;;5024444;28;20480;-62
2023/07/12 04:11:01;;;;;;;32.47;13.80;;;21.70;99.90;;;;;;5024791;28;20519;-63
2023/07/12 04:13:29;;;;;;;19.70;11.73;;;21.70;99.90;;;;;;5022815;28;20484;-62
2023/07/12 04:15:59;;;;;;;31.93;15.00;;;21.80;99.90;;;;;;5020108;28;20484;-63
2023/07/12 04:18:27;;;;;;;33.07;14.50;;;21.80;99.90;;;;;;5024796;28;20509;-64
2023/07/12 04:20:55;;;;;;;35.33;14.17;;;21.80;99.90;;;;;;5023218;28;20496;-64
2023/07/12 04:23:21;;;;;;;26.03;12.53;;;21.80;99.90;;;;;;5032477;28;20487;-64
2023/07/12 04:25:48;;;;;;;24.30;12.70;;;21.90;99.90;;;;;;5033962;28;20869;-62
2023/07/12 04:28:15;;;;;;;46.63;16.43;;;21.90;99.90;;;;;;5025447;28;21054;-63
2023/07/12 04:30:43;;;;;;;23.20;12.43;;;21.90;99.90;;;;;;5022288;28;20485;-62
2023/07/12 04:33:10;;;;;;;46.17;18.03;;;21.80;99.90;;;;;;5025106;28;20484;-63
2023/07/12 04:35:40;;;;;;;26.43;12.10;;;21.80;99.90;;;;;;5031062;28;20480;-63
2023/07/12 04:38:07;;;;;;;33.73;17.43;;;21.70;99.90;;;;;;5039106;28;20875;-64
2023/07/12 04:40:34;;;;;;;33.07;15.50;;;21.60;99.90;;;;;;5034034;28;20472;-62
2023/07/12 04:43:01;;;;;;;26.53;13.87;;;21.60;99.90;;;;;;5026212;28;21010;-62
2023/07/12 04:45:29;;;;;;;24.50;13.87;;;21.50;99.90;;;;;;5031588;28;20476;-62
2023/07/12 04:47:57;;;;;;;31.60;14.70;;;21.60;99.90;;;;;;5026795;28;20473;-62
2023/07/12 04:50:24;;;;;;;19.87;11.27;;;21.60;99.90;;;;;;5040250;28;20487;-62
2023/07/12 04:52:51;;;;;;;30.63;13.60;;;21.70;99.90;;;;;;5026651;28;20490;-62
2023/07/12 04:55:24;;;;;;;21.87;13.43;;;21.70;99.90;;;;;;5027620;28;20480;-62
2023/07/12 04:57:52;;;;;;;29.93;13.73;;;21.70;99.90;;;;;;5038164;28;20494;-62
2023/07/12 05:00:19;;;;;;;26.10;13.40;;;21.80;99.90;;;;;;5028312;28;20490;-62
2023/07/12 05:02:47;;;;;;;28.43;13.83;;;21.80;99.90;;;;;;5037705;28;20475;-61
2023/07/12 05:05:15;;;;;;;38.60;14.43;;;21.90;99.90;;;;;;5025835;28;21030;-62
2023/07/12 05:07:43;;;;;;;30.30;12.80;;;22.00;99.90;;;;;;5063316;28;21297;-62
2023/07/12 05:10:11;;;;;;;47.47;18.83;;;22.00;99.90;;;;;;5065694;28;20478;-62
2023/07/12 05:12:39;;;;;;;38.10;17.17;;;22.00;99.90;;;;;;5062872;28;21072;-62
2023/07/12 05:15:08;;;;;;;29.90;15.57;;;22.00;99.90;;;;;;5066890;28;20480;-62
2023/07/12 05:17:35;;;;;;;34.37;15.33;;;22.00;99.90;;;;;;5065452;28;20996;-62
2023/07/12 05:20:04;;;;;;;32.00;13.97;;;22.00;99.90;;;;;;5063236;28;20513;-62
2023/07/12 05:22:32;;;;;;;30.23;14.10;;;22.00;99.90;;;;;;5062838;28;20446;-62
2023/07/12 05:25:00;;;;;;;21.93;12.33;;;22.00;99.90;;;;;;5062960;28;20716;-62
2023/07/12 05:27:27;;;;;;;26.87;13.00;;;22.00;99.90;;;;;;5066845;28;20476;-63
2023/07/12 05:29:54;;;;;;;28.80;13.50;;;22.00;99.90;;;;;;5068136;28;20486;-62
2023/07/12 05:32:21;;;;;;;26.87;11.90;;;22.60;99.90;;;;;;5060105;28;20483;-63
2023/07/12 05:34:48;;;;;;;25.30;12.80;;;22.00;99.90;;;;;;5056093;28;20482;-63
2023/07/12 05:37:16;;;;;;;32.20;14.70;;;22.10;99.90;;;;;;5067433;28;21212;-62
2023/07/12 05:39:44;;;;;;;28.83;13.00;;;22.30;99.90;;;;;;5049826;28;20825;-63
2023/07/12 05:42:11;;;;;;;34.23;16.60;;;22.40;99.90;;;;;;5043836;28;20499;-63
2023/07/12 05:44:38;;;;;;;22.37;13.37;;;22.40;99.90;;;;;;5051149;28;20471;-63
2023/07/12 05:47:06;;;;;;;32.03;15.20;;;22.40;99.90;;;;;;5056668;28;20482;-63
2023/07/12 05:49:32;;;;;;;35.63;15.60;;;22.40;99.90;;;;;;5023046;28;20493;-63
2023/07/12 05:52:00;;;;;;;21.57;12.90;;;22.30;99.90;;;;;;5028522;28;21146;-62
2023/07/12 05:54:27;;;;;;;20.03;11.37;;;22.50;99.90;;;;;;5026126;28;20988;-63
2023/07/12 05:56:55;;;;;;;26.00;13.57;;;22.50;99.90;;;;;;5024122;28;20488;-63
2023/07/12 05:59:23;;;;;;;28.50;12.60;;;22.50;99.90;;;;;;5032062;28;20846;-63
2023/07/12 06:01:50;;;;;;;31.30;14.30;;;22.60;99.90;;;;;;5022403;28;20485;-63
2023/07/12 06:04:17;;;;;;;37.90;17.57;;;22.50;99.90;;;;;;5023108;28;20480;-63
2023/07/12 06:06:43;;;;;;;24.80;14.97;;;22.60;99.90;;;;;;5026782;28;20481;-62
2023/07/12 06:09:10;;;;;;;29.37;15.40;;;22.50;99.90;;;;;;5025636;28;20495;-63
2023/07/12 06:11:37;;;;;;;25.77;14.77;;;22.60;99.90;;;;;;5056936;28;20482;-63
2023/07/12 06:14:05;;;;;;;38.13;18.97;;;22.50;99.90;;;;;;5058463;28;20487;-63
2023/07/12 06:16:33;;;;;;;29.73;16.27;;;22.50;99.90;;;;;;5061463;28;21003;-63
2023/07/12 06:19:00;;;;;;;29.63;16.70;;;22.60;99.90;;;;;;5060038;28;20893;-63
2023/07/12 06:21:27;;;;;;;27.13;16.07;;;22.60;99.90;;;;;;5062673;28;20904;-62
2023/07/12 06:23:57;;;;;;;38.70;18.50;;;22.50;99.90;;;;;;5061490;28;21022;-63
2023/07/12 06:26:24;;;;;;;32.60;16.13;;;22.60;99.90;;;;;;5054562;28;20482;-63
2023/07/12 06:28:51;;;;;;;33.43;18.50;;;22.60;99.90;;;;;;5063622;28;20489;-62
2023/07/12 06:31:19;;;;;;;50.13;19.63;;;22.60;99.90;;;;;;5053605;28;20474;-63
2023/07/12 06:33:46;;;;;;;33.80;18.47;;;22.70;99.90;;;;;;5043974;28;20476;-62
2023/07/12 06:36:13;;;;;;;45.37;20.57;;;22.70;99.90;;;;;;5028656;28;20468;-63
2023/07/12 06:38:40;;;;;;;28.20;18.60;;;22.70;99.90;;;;;;5029552;28;20851;-63
2023/07/12 06:41:07;;;;;;;46.47;22.80;;;22.70;99.90;;;;;;5027965;28;20519;-63
2023/07/12 06:43:34;;;;;;;33.40;20.50;;;22.80;99.90;;;;;;5026998;28;20475;-63
2023/07/12 06:46:00;;;;;;;31.03;18.90;;;22.90;99.90;;;;;;5019349;28;20496;-62
2023/07/12 06:48:29;;;;;;;37.40;18.77;;;23.00;99.90;;;;;;5025396;28;20491;-63
2023/07/12 06:50:56;;;;;;;25.17;17.30;;;23.10;99.90;;;;;;5023449;28;20473;-63
2023/07/12 06:53:23;;;;;;;36.63;19.13;;;23.20;99.90;;;;;;5021747;28;20575;-63
2023/07/12 06:55:50;;;;;;;44.33;17.83;;;23.20;99.90;;;;;;5025239;28;20765;-62
2023/07/12 06:58:16;;;;;;;47.37;20.80;;;23.10;99.90;;;;;;5031933;28;20737;-62
2023/07/12 07:00:44;;;;;;;30.20;17.60;;;23.10;99.90;;;;;;5036134;28;20831;-62
2023/07/12 07:03:13;;;;;;;52.43;23.90;;;23.20;99.90;;;;;;5034795;28;20565;-62
2023/07/12 07:05:44;;;;;;;34.00;17.20;;;23.30;99.90;;;;;;5027860;28;20481;-63
2023/07/12 07:08:12;;;;;;;37.23;20.83;;;23.30;99.90;;;;;;5052841;28;20487;-62
2023/07/12 07:10:39;;;;;;;35.57;19.23;;;23.30;99.90;;;;;;5018709;28;20953;-64
2023/07/12 07:13:06;;;;;;;61.40;22.63;;;23.30;99.90;;;;;;5033930;28;20480;-63
2023/07/12 07:15:33;;;;;;;39.97;19.53;;;23.40;99.90;;;;;;5026599;28;20487;-64
2023/07/12 07:17:59;;;;;;;26.03;18.20;;;23.50;99.90;;;;;;5024849;28;20476;-63
2023/07/12 07:20:27;;;;;;;39.97;17.90;;;;;;;;;;5030435;28;20487;-63
2023/07/12 07:22:56;;;;;;;31.93;18.97;;;23.30;99.90;;;;;;5027636;28;20478;-62
2023/07/12 07:25:24;;;;;;;30.90;17.43;;;23.40;99.90;;;;;;5020025;28;20488;-62
2023/07/12 07:27:51;;;;;;;36.80;19.87;;;23.60;99.90;;;;;;5024825;28;21150;-63
2023/07/12 07:30:18;;;;;;;29.40;19.20;;;23.70;99.90;;;;;;5024033;28;20948;-63
2023/07/12 07:32:45;;;;;;;54.37;21.10;;;23.80;99.90;;;;;;5026979;28;20802;-63
2023/07/12 07:35:13;;;;;;;37.77;21.10;;;23.80;99.90;;;;;;5032294;28;20483;-62
2023/07/12 07:37:40;;;;;;;27.07;19.43;;;24.00;99.90;;;;;;5019397;28;20472;-64
2023/07/12 07:40:09;;;;;;;41.27;21.83;;;24.00;99.90;;;;;;5027345;28;20816;-64
2023/07/12 07:42:36;;;;;;;32.23;18.93;;;24.20;99.90;;;;;;5020054;28;20726;-63
2023/07/12 07:45:03;;;;;;;28.57;18.10;;;24.40;99.90;;;;;;5035768;28;21022;-63
2023/07/12 07:47:30;;;;;;;31.87;15.87;;;24.30;99.90;;;;;;5020312;28;20479;-62
2023/07/12 07:49:57;;;;;;;29.40;14.93;;;23.80;99.90;;;;;;5031052;28;20861;-63
2023/07/12 07:52:24;;;;;;;25.83;14.70;;;24.60;99.90;;;;;;5027714;28;20480;-65
2023/07/12 07:54:51;;;;;;;27.13;15.13;;;24.50;99.90;;;;;;5031776;28;20504;-62
2023/07/12 07:57:20;;;;;;;27.70;16.70;;;24.70;99.90;;;;;;5036322;28;20479;-63
2023/07/12 07:59:46;;;;;;;25.03;14.60;;;24.70;99.90;;;;;;5058335;28;20500;-64
2023/07/12 08:02:13;;;;;;;44.97;17.53;;;24.90;99.90;;;;;;5059821;28;20483;-63
2023/07/12 08:04:40;;;;;;;26.00;13.43;;;25.00;99.90;;;;;;5058690;28;20479;-64
2023/07/12 08:07:07;;;;;;;34.13;16.80;;;24.80;99.90;;;;;;5057394;28;20473;-63
2023/07/12 08:09:35;;;;;;;23.23;13.90;;;24.80;99.90;;;;;;5058664;28;20483;-63
2023/07/12 08:12:02;;;;;;;21.93;13.50;;;24.90;99.90;;;;;;5062188;28;20547;-63
2023/07/12 08:14:30;;;;;;;31.97;14.93;;;24.80;99.90;;;;;;5058879;28;20451;-63
2023/07/12 08:16:57;;;;;;;21.20;12.97;;;24.80;99.90;;;;;;5059185;28;20486;-64
2023/07/12 08:19:24;;;;;;;17.67;11.17;;;24.40;99.90;;;;;;5061069;28;21168;-63
2023/07/12 08:21:51;;;;;;;22.80;13.60;;;24.60;99.90;;;;;;5057951;28;21480;-63
2023/07/12 08:24:18;;;;;;;28.57;14.50;;;24.70;99.90;;;;;;5056071;28;20471;-63
2023/07/12 08:26:45;;;;;;;12.83;8.97;;;24.80;99.90;;;;;;5061695;28;20489;-63
2023/07/12 08:29:12;;;;;;;40.47;17.23;;;25.00;99.90;;;;;;5054943;28;20491;-63
2023/07/12 08:31:40;;;;;;;18.90;11.37;;;25.10;99.90;;;;;;5058812;28;20891;-64
2023/07/12 08:34:07;;;;;;;30.70;14.53;;;25.10;99.90;;;;;;5061668;28;20508;-63
2023/07/12 08:36:34;;;;;;;17.67;11.10;;;25.30;99.90;;;;;;5047129;28;20478;-63
2023/07/12 08:39:01;;;;;;;12.03;9.07;;;25.10;99.90;;;;;;5051934;28;20441;-64
2023/07/12 08:41:29;;;;;;;9.30;5.20;;;25.10;99.90;;;;;;5057179;28;21010;-63
2023/07/12 08:43:56;;;;;;;10.20;6.60;;;25.10;99.40;;;;;;5056588;28;20577;-63
2023/07/12 08:46:25;;;;;;;7.17;6.20;;;25.30;99.90;;;;;;5058592;28;20475;-62
2023/07/12 08:48:55;;;;;;;14.57;6.37;;;25.40;99.90;;;;;;5048792;28;20479;-62
2023/07/12 08:51:28;;;;;;;8.87;4.90;;;25.40;99.30;;;;;;5054097;28;21043;-62
2023/07/12 08:53:56;;;;;;;16.73;6.37;;;25.40;98.90;;;;;;5026403;28;20939;-62
2023/07/12 08:56:23;;;;;;;5.70;4.50;;;25.50;98.70;;;;;;5032373;28;21007;-62
2023/07/12 08:58:52;;;;;;;13.50;6.87;;;25.70;97.70;;;;;;5029228;28;20476;-64
2023/07/12 09:01:43;;;;;;;17.83;7.23;;;25.70;98.20;;;;;;5024933;28;20903;-64
2023/07/12 09:04:22;;;;;;;26.27;10.83;;;25.90;98.50;;;;;;5029054;28;20498;-64
2023/07/12 09:06:50;;;;;;;15.97;6.50;;;25.90;98.10;;;;;;5025245;28;20495;-64
2023/07/12 09:09:18;;;;;;;8.30;6.60;;;26.00;97.50;;;;;;5029310;28;20533;-63
2023/07/12 09:11:46;;;;;;;23.87;6.40;;;25.90;97.30;;;;;;5021873;28;20473;-64
2023/07/12 09:14:16;;;;;;;6.13;4.83;;;25.80;97.00;;;;;;5035270;28;20490;-63
2023/07/12 09:16:47;;;;;;;11.60;6.00;;;26.00;96.70;;;;;;5031281;28;20872;-64
2023/07/12 09:19:16;;;;;;;11.03;5.20;;;26.20;97.30;;;;;;5024076;28;20484;-63
2023/07/12 09:21:50;;;;;;;8.27;4.20;;;26.30;96.30;;;;;;5044968;28;20469;-64
2023/07/12 09:24:22;;;;;;;6.23;4.17;;;26.00;96.10;;;;;;5035460;28;20525;-64
2023/07/12 09:26:50;;;;;;;13.63;5.63;;;25.70;96.80;;;;;;5037306;28;20480;-64
2023/07/12 09:29:21;;;;;;;18.40;8.50;;;25.70;96.50;;;;;;5035161;28;20485;-63
2023/07/12 09:31:48;;;;;;;17.60;7.33;;;25.60;97.60;;;;;;5042940;28;20478;-64
2023/07/12 09:34:21;;;;;;;11.87;7.43;;;25.70;98.70;;;;;;5036359;28;20475;-64
2023/07/12 09:36:56;;;;;;;8.40;5.17;;;25.60;97.70;;;;;;5024435;28;20484;-63
2023/07/12 09:39:25;;;;;;;11.73;6.07;;;25.60;96.80;;;;;;5024547;28;20467;-63
2023/07/12 09:41:56;;;;;;;13.13;7.17;;;25.70;97.00;;;;;;5023642;28;20486;-62
2023/07/12 09:44:23;;;;;;;16.47;7.00;;;25.60;97.40;;;;;;5023643;28;20552;-63
2023/07/12 09:46:54;;;;;;;20.37;6.57;;;25.50;96.70;;;;;;5028207;28;20543;-62
2023/07/12 09:49:24;;;;;;;20.17;6.70;;;25.40;96.50;;;;;;5058943;28;20839;-63
2023/07/12 09:52:04;;;;;;;16.80;6.73;;;25.60;96.80;;;;;;5056314;28;20479;-62
2023/07/12 09:54:41;;;;;;;16.43;6.50;;;27.20;96.80;;;;;;5061297;28;20816;-63
2023/07/12 09:57:12;;;;;;;30.33;11.20;;;26.00;95.70;;;;;;5054739;28;20442;-63
2023/07/12 09:59:48;;;;;;;22.70;8.80;;;26.10;95.10;;;;;;5063552;28;21307;-63
2023/07/12 10:02:27;;;;;;;14.17;5.17;;;26.30;94.90;;;;;;5062293;28;20490;-63
2023/07/12 10:04:58;;;;;;;17.40;7.40;;;26.30;95.20;;;;;;5062090;28;20470;-63
2023/07/12 10:07:35;;;;;;;12.90;4.13;;;26.10;95.30;;;;;;5044293;28;20474;-63
2023/07/12 10:10:03;;;;;;;14.17;6.87;;;26.00;94.00;;;;;;5062794;28;20560;-64
2023/07/12 10:12:38;;;;;;;9.90;5.33;;;26.10;95.20;;;;;;5058651;28;21493;-63
2023/07/12 10:15:11;;;;;;;8.47;4.50;;;26.20;95.40;;;;;;5060852;28;20490;-63
2023/07/12 10:17:40;;;;;;;12.33;5.83;;;26.40;95.10;;;;;;5061205;28;20482;-63
2023/07/12 10:20:15;;;;;;;19.73;6.30;;;26.10;94.00;;;;;;5059624;28;20475;-63
2023/07/12 10:22:46;;;;;;;11.57;5.60;;;26.20;94.40;;;;;;5058445;28;21592;-63
2023/07/12 10:25:29;;;;;;;8.50;4.60;;;26.20;94.50;;;;;;5060646;28;20851;-63
2023/07/12 10:28:00;;;;;;;11.97;5.80;;;26.50;94.90;;;;;;5049141;28;20490;-63
2023/07/12 10:30:29;;;;;;;8.40;3.53;;;26.40;93.50;;;;;;5044754;28;20556;-63
2023/07/12 10:33:02;;;;;;;22.10;7.70;;;26.30;94.10;;;;;;5065260;28;20707;-64
2023/07/12 10:35:41;;;;;;;11.83;5.50;;;26.20;94.20;;;;;;5028383;28;20471;-63
2023/07/12 10:38:14;;;;;;;22.30;9.27;;;26.30;95.10;;;;;;5034760;28;20697;-66
2023/07/12 10:40:48;;;;;;;6.07;4.13;;;26.00;94.60;;;;;;5035353;28;20460;-62
2023/07/12 10:43:21;;;;;;;8.43;3.63;;;26.00;93.30;;;;;;5035434;28;20890;-63
2023/07/12 10:45:52;;;;;;;12.60;6.07;;;26.00;93.50;;;;;;5034605;28;20475;-63
2023/07/12 10:48:24;;;;;;;21.40;6.77;;;25.90;93.40;;;;;;5033047;28;20478;-62
2023/07/12 10:50:54;;;;;;;16.80;5.30;;;25.80;93.90;;;;;;5034989;28;21004;-62
2023/07/12 10:53:24;;;;;;;16.23;7.00;;;25.60;93.90;;;;;;5022897;28;20872;-62
2023/07/12 10:56:13;;;;;;;23.20;7.13;;;25.80;94.80;;;;;;5030837;28;20454;-62
2023/07/12 10:58:50;;;;;;;7.73;5.07;;;26.00;95.50;;;;;;5039145;28;20544;-63
2023/07/12 11:01:50;;;;;;;10.83;5.60;;;26.20;95.10;;;;;;5027303;28;21075;-62
2023/07/12 11:04:25;;;;;;;4.70;4.30;;;26.40;94.30;;;;;;5031303;28;20831;-62
2023/07/12 11:07:01;;;;;;;8.90;4.73;;;26.50;93.80;;;;;;5032792;28;20468;-64
2023/07/12 11:10:05;;;;;;;11.83;4.40;;;26.40;93.30;;;;;;5033400;28;20973;-64
2023/07/12 11:12:38;;;;;;;9.77;4.53;;;26.40;94.30;;;;;;5034078;28;20481;-63
2023/07/12 11:15:19;;;;;;;21.60;8.37;;;26.40;93.80;;;;;;5026904;28;20790;-64
2023/07/12 11:17:52;;;;;;;17.00;6.03;;;26.40;93.70;;;;;;5029399;28;21355;-63
2023/07/12 11:20:24;;;;;;;19.57;7.43;;;26.40;93.70;;;;;;5032877;28;20528;-64
2023/07/12 11:22:57;;;;;;;18.57;8.37;;;26.40;94.60;;;;;;5040065;28;20482;-64
2023/07/12 11:25:39;;;;;;;10.77;5.47;;;26.60;93.40;;;;;;5035096;28;20748;-64
2023/07/12 11:28:23;;;;;;;28.33;11.00;;;26.60;93.10;;;;;;5055065;28;20463;-64
2023/07/12 11:31:13;;;;;;;21.10;7.93;;;26.50;92.30;;;;;;5061643;28;20501;-63
2023/07/12 11:33:41;;;;;;;6.03;3.70;;;26.40;92.20;;;;;;5065116;28;20465;-64
2023/07/12 11:36:10;;;;;;;31.17;11.70;;;26.50;92.40;;;;;;5062957;28;20477;-63
2023/07/12 11:38:42;;;;;;;20.33;8.10;;;26.60;92.10;;;;;;5061662;28;20786;-63
2023/07/12 11:41:17;;;;;;;36.27;11.70;;;26.80;93.10;;;;;;5065578;28;20569;-63
2023/07/12 11:43:43;;;;;;;20.10;7.97;;;27.00;93.10;;;;;;5058602;28;20449;-63
2023/07/12 11:46:19;;;;;;;16.47;6.47;;;27.30;92.10;;;;;;5066400;28;20560;-63
2023/07/12 11:48:51;;;;;;;23.37;9.10;;;27.50;93.20;;;;;;5062451;28;20485;-64
2023/07/12 11:51:27;;;;;;;20.30;7.87;;;27.70;92.30;;;;;;5066749;28;20492;-63
2023/07/12 11:53:57;;;;;;;19.40;8.53;;;27.70;92.00;;;;;;5060369;28;20470;-63
2023/07/12 11:56:25;;;;;;;19.10;6.77;;;27.60;91.00;;;;;;5061075;28;20457;-64
2023/07/12 11:58:53;;;;;;;19.00;7.10;;;27.60;91.90;;;;;;5064647;28;20759;-63
2023/07/12 12:01:22;;;;;;;20.70;8.13;;;27.40;91.20;;;;;;5061855;28;21016;-62
2023/07/12 12:03:50;;;;;;;26.00;8.63;;;27.30;92.60;;;;;;5069446;28;20502;-62
2023/07/12 12:06:18;;;;;;;18.17;8.20;;;27.40;91.10;;;;;;5066875;28;21165;-64
2023/07/12 12:08:50;;;;;;;9.93;4.97;;;27.30;91.10;;;;;;5067178;28;20460;-63
2023/07/12 12:11:17;;;;;;;13.73;5.83;;;27.10;91.40;;;;;;5066144;28;20465;-63
2023/07/12 12:13:49;;;;;;;5.63;3.93;;;27.20;91.10;;;;;;5065299;28;20479;-64
2023/07/12 12:16:23;;;;;;;23.93;8.80;;;27.40;90.80;;;;;;5065374;28;20455;-63
2023/07/12 12:18:55;;;;;;;8.77;4.27;;;27.60;90.60;;;;;;5063842;28;20453;-63
2023/07/12 12:21:24;;;;;;;11.57;5.27;;;27.80;89.70;;;;;;5062633;28;20840;-63
2023/07/12 12:23:54;;;;;;;29.13;7.23;;;27.90;90.00;;;;;;5054095;28;20989;-63
2023/07/12 12:26:25;;;;;;;12.93;5.50;;;27.90;90.30;;;;;;5058262;28;20843;-63
2023/07/12 12:28:58;;;;;;;9.83;4.70;;;27.90;90.30;;;;;;5060014;28;20447;-63
2023/07/12 12:31:27;;;;;;;5.03;3.67;;;27.80;88.20;;;;;;5060489;28;20457;-63
2023/07/12 12:34:03;;;;;;;15.27;6.60;;;27.80;88.30;;;;;;5068040;28;20969;-63
2023/07/12 12:36:33;;;;;;;18.03;5.63;;;28.00;90.00;;;;;;5068317;28;20481;-63
2023/07/12 12:39:05;;;;;;;19.30;7.10;;;28.10;89.50;;;;;;5066015;28;21030;-63
2023/07/12 12:41:38;;;;;;;21.40;6.57;;;28.00;86.40;;;;;;5055174;28;20774;-62